Time;durP1;ratioP1;P1;durP2;ratioP2;P2;SDS_P1;SDS_P2;PMS_P1;PMS_P2;Temp;Humidity;BMP_temperature;BMP_pressure;BME280_temperature;BME280_humidity;BME280_pressure;Samples;Min_cycle;Max_cycle;Signal;HPM_P1;HPM_P2
2022/06/19 00:01:47;;;;;;;18.97;8.27;;;20.60;99.90;;;;;;5048466;28;20467;-71
2022/06/19 00:04:16;;;;;;;15.97;7.87;;;20.50;99.90;;;;;;5049331;28;21026;-70
2022/06/19 00:06:43;;;;;;;14.00;7.67;;;20.40;99.90;;;;;;5049247;28;20976;-72
2022/06/19 00:09:10;;;;;;;11.90;7.83;;;20.20;99.90;;;;;;5049242;28;20455;-70
2022/06/19 00:11:39;;;;;;;16.03;7.30;;;20.30;99.90;;;;;;5048196;28;20575;-71
2022/06/19 00:14:07;;;;;;;12.33;6.60;;;20.20;99.90;;;;;;5049124;28;20947;-71
2022/06/19 00:16:35;;;;;;;11.03;7.10;;;20.00;99.90;;;;;;5049004;28;20448;-70
2022/06/19 00:19:03;;;;;;;12.70;7.47;;;20.00;99.90;;;;;;5049724;28;20444;-71
2022/06/19 00:21:31;;;;;;;12.47;6.77;;;20.00;99.90;;;;;;5048161;28;20554;-71
2022/06/19 00:23:58;;;;;;;13.00;7.57;;;19.90;99.90;;;;;;5048984;28;20839;-72
2022/06/19 00:26:25;;;;;;;14.80;7.73;;;19.80;99.90;;;;;;5048842;28;20459;-71
2022/06/19 00:28:52;;;;;;;11.90;7.10;;;19.70;99.90;;;;;;5050208;28;20881;-70
2022/06/19 00:31:19;;;;;;;14.30;7.47;;;19.70;99.90;;;;;;5051782;28;20582;-71
2022/06/19 00:33:46;;;;;;;16.30;7.80;;;19.60;99.90;;;;;;5052625;28;20447;-72
2022/06/19 00:36:13;;;;;;;17.00;8.20;;;19.50;99.90;;;;;;5052136;28;20458;-71
2022/06/19 00:38:41;;;;;;;10.07;6.70;;;19.50;99.90;;;;;;5052402;28;20944;-71
2022/06/19 00:41:08;;;;;;;19.63;7.47;;;19.50;99.90;;;;;;5051741;28;20440;-70
2022/06/19 00:43:53;;;;;;;15.80;7.10;;;19.40;99.90;;;;;;5052591;28;20444;-70
2022/06/19 00:46:41;;;;;;;12.30;7.63;;;19.30;99.90;;;;;;5051971;28;20999;-72
2022/06/19 00:49:11;;;;;;;15.10;7.30;;;19.30;99.90;;;;;;5052270;28;20440;-71
2022/06/19 00:51:37;;;;;;;13.60;7.50;;;19.20;99.90;;;;;;5051567;28;20495;-70
2022/06/19 00:54:07;;;;;;;18.00;8.70;;;19.30;99.90;;;;;;5052143;28;20961;-71
2022/06/19 00:56:34;;;;;;;11.70;7.10;;;19.30;99.90;;;;;;5051738;28;20458;-71
2022/06/19 00:59:03;;;;;;;16.43;7.57;;;19.30;99.90;;;;;;5052163;28;20443;-71
2022/06/19 01:01:30;;;;;;;19.80;7.37;;;19.40;99.90;;;;;;5051123;28;20981;-70
2022/06/19 01:04:03;;;;;;;17.07;6.20;;;19.50;99.90;;;;;;5051953;28;20922;-71
2022/06/19 01:06:30;;;;;;;14.77;7.80;;;19.30;99.90;;;;;;5051985;28;20446;-71
2022/06/19 01:08:57;;;;;;;15.30;7.30;;;19.20;99.90;;;;;;5051815;28;20452;-70
2022/06/19 01:11:30;;;;;;;13.27;7.17;;;19.20;99.90;;;;;;5050919;28;21092;-72
2022/06/19 01:13:58;;;;;;;9.17;6.50;;;19.30;99.90;;;;;;5051791;28;20956;-71
2022/06/19 01:16:26;;;;;;;15.07;7.83;;;19.30;99.90;;;;;;5051362;28;20443;-70
2022/06/19 01:18:52;;;;;;;13.43;7.80;;;19.30;99.90;;;;;;5051707;28;20448;-71
2022/06/19 01:21:25;;;;;;;12.00;7.90;;;19.20;99.90;;;;;;5051077;28;20466;-69
2022/06/19 01:24:00;;;;;;;16.80;7.90;;;19.10;99.90;;;;;;5051771;28;21019;-70
2022/06/19 01:26:33;;;;;;;12.03;6.93;;;18.90;99.90;;;;;;5051168;28;20443;-70
2022/06/19 01:29:00;;;;;;;13.70;7.00;;;18.80;99.90;;;;;;5051910;28;20454;-70
2022/06/19 01:31:30;;;;;;;12.20;7.00;;;18.80;99.90;;;;;;5050865;28;20479;-70
2022/06/19 01:34:00;;;;;;;14.67;7.10;;;18.80;99.90;;;;;;5051653;28;20444;-71
2022/06/19 01:36:28;;;;;;;10.70;6.83;;;18.70;99.90;;;;;;5051073;28;20440;-70
2022/06/19 01:38:55;;;;;;;14.17;7.80;;;18.60;99.90;;;;;;5051397;28;20450;-70
2022/06/19 01:41:26;;;;;;;37.37;8.30;;;18.50;99.90;;;;;;5049816;28;20462;-70
2022/06/19 01:43:55;;;;;;;9.83;7.40;;;18.40;99.90;;;;;;5051503;28;20448;-70
2022/06/19 01:46:24;;;;;;;13.17;7.20;;;18.30;99.90;;;;;;5051010;28;20930;-70
2022/06/19 01:48:51;;;;;;;12.00;7.60;;;18.40;99.90;;;;;;5051353;28;20816;-69
2022/06/19 01:51:18;;;;;;;11.97;6.80;;;18.40;99.90;;;;;;5050231;28;20491;-69
2022/06/19 01:53:52;;;;;;;13.63;7.77;;;18.40;99.90;;;;;;5051022;28;20448;-68
2022/06/19 01:56:19;;;;;;;13.93;8.20;;;18.40;99.90;;;;;;5050911;28;20451;-69
2022/06/19 01:58:50;;;;;;;11.43;7.30;;;18.40;99.90;;;;;;5051023;28;20950;-70
2022/06/19 02:01:18;;;;;;;15.50;7.63;;;18.30;99.90;;;;;;5050019;28;20464;-70
2022/06/19 02:03:47;;;;;;;15.13;9.17;;;18.30;99.90;;;;;;5050971;28;20539;-69
2022/06/19 02:06:18;;;;;;;12.67;7.30;;;18.40;99.90;;;;;;5050474;28;20841;-69
2022/06/19 02:08:45;;;;;;;9.93;7.07;;;18.40;99.90;;;;;;5051001;28;20470;-71
2022/06/19 02:11:13;;;;;;;16.27;8.50;;;18.40;99.90;;;;;;5050108;28;20621;-70
2022/06/19 02:13:41;;;;;;;12.87;7.80;;;18.40;99.90;;;;;;5051103;28;20837;-70
2022/06/19 02:16:11;;;;;;;11.30;6.80;;;18.40;99.90;;;;;;5050523;28;20448;-69
2022/06/19 02:18:42;;;;;;;14.10;7.83;;;18.40;99.90;;;;;;5050926;28;20444;-69
2022/06/19 02:21:15;;;;;;;11.80;7.20;;;18.30;99.90;;;;;;5050689;28;20447;-67
2022/06/19 02:23:42;;;;;;;19.33;8.97;;;18.30;99.90;;;;;;5051219;28;20444;-69
2022/06/19 02:26:12;;;;;;;15.73;8.00;;;18.30;99.90;;;;;;5050734;28;20451;-69
2022/06/19 02:28:43;;;;;;;11.93;8.13;;;18.20;99.90;;;;;;5051038;28;20454;-71
2022/06/19 02:31:10;;;;;;;10.30;7.20;;;18.20;99.90;;;;;;5050194;28;20467;-70
2022/06/19 02:33:44;;;;;;;15.50;8.60;;;18.10;99.90;;;;;;5050914;28;20455;-70
2022/06/19 02:36:34;;;;;;;12.63;7.40;;;18.00;99.90;;;;;;5050583;28;20461;-70
2022/06/19 02:39:20;;;;;;;11.50;8.40;;;18.00;99.90;;;;;;5050616;28;20440;-70
2022/06/19 02:41:58;;;;;;;11.90;7.90;;;18.00;99.90;;;;;;5049444;28;20490;-70
2022/06/19 02:44:32;;;;;;;10.47;7.10;;;18.10;99.90;;;;;;5050021;28;20960;-69
2022/06/19 02:46:59;;;;;;;9.87;7.10;;;18.10;99.90;;;;;;5050250;28;20950;-70
2022/06/19 02:49:27;;;;;;;15.53;7.20;;;18.00;99.90;;;;;;5050157;28;20444;-71
2022/06/19 02:51:54;;;;;;;14.00;8.17;;;18.00;99.90;;;;;;5048659;28;20479;-70
2022/06/19 02:54:20;;;;;;;13.17;7.80;;;17.90;99.90;;;;;;5049691;28;20444;-70
2022/06/19 02:56:47;;;;;;;11.63;8.27;;;18.10;99.90;;;;;;5050283;28;20543;-69
2022/06/19 02:59:14;;;;;;;12.20;7.40;;;18.20;99.90;;;;;;5049915;28;20451;-71
2022/06/19 03:01:41;;;;;;;11.37;7.23;;;18.20;99.90;;;;;;5049130;28;20981;-70
2022/06/19 03:04:15;;;;;;;12.07;7.87;;;18.10;99.90;;;;;;5050074;28;20461;-70
2022/06/19 03:06:43;;;;;;;15.53;7.13;;;18.10;99.90;;;;;;5049973;28;20458;-70
2022/06/19 03:09:10;;;;;;;13.10;9.07;;;18.10;99.90;;;;;;5049807;28;20456;-70
2022/06/19 03:11:37;;;;;;;12.50;7.90;;;18.00;99.90;;;;;;5049023;28;20464;-70
2022/06/19 03:14:04;;;;;;;18.33;7.67;;;18.10;99.90;;;;;;5049799;28;20464;-69
2022/06/19 03:16:31;;;;;;;12.23;7.20;;;18.10;99.90;;;;;;5049447;28;20444;-70
2022/06/19 03:18:58;;;;;;;15.27;8.70;;;18.10;99.90;;;;;;5049727;28;20448;-71
2022/06/19 03:21:25;;;;;;;12.00;8.00;;;18.10;99.90;;;;;;5049070;28;20476;-72
2022/06/19 03:23:53;;;;;;;14.63;8.37;;;18.10;99.90;;;;;;5049817;28;20531;-70
2022/06/19 03:26:20;;;;;;;11.70;7.43;;;18.20;99.90;;;;;;5049429;28;20455;-71
2022/06/19 03:28:47;;;;;;;9.80;8.13;;;18.10;99.90;;;;;;5049699;28;20558;-73
2022/06/19 03:31:16;;;;;;;14.03;8.27;;;18.00;99.90;;;;;;5048799;28;20462;-71
2022/06/19 03:33:43;;;;;;;14.27;7.93;;;17.90;99.90;;;;;;5049962;28;20447;-71
2022/06/19 03:36:10;;;;;;;14.97;8.03;;;17.90;99.90;;;;;;5049355;28;20543;-71
2022/06/19 03:38:37;;;;;;;14.13;7.67;;;17.90;99.90;;;;;;5049643;28;20828;-70
2022/06/19 03:41:05;;;;;;;13.90;8.10;;;18.00;99.90;;;;;;5048873;28;20456;-71
2022/06/19 03:43:33;;;;;;;11.03;8.70;;;18.00;99.90;;;;;;5049330;28;21031;-71
2022/06/19 03:46:01;;;;;;;13.37;7.50;;;18.00;99.90;;;;;;5049000;28;20482;-71
2022/06/19 03:48:28;;;;;;;11.43;7.70;;;18.00;99.90;;;;;;5049317;28;20543;-70
2022/06/19 03:50:55;;;;;;;13.60;8.13;;;18.10;99.90;;;;;;5048700;28;20458;-71
2022/06/19 03:53:21;;;;;;;12.97;8.30;;;18.20;99.90;;;;;;5049463;28;20882;-71
2022/06/19 03:55:48;;;;;;;12.70;6.73;;;18.20;99.90;;;;;;5048983;28;20448;-69
2022/06/19 03:58:17;;;;;;;12.57;7.60;;;18.20;99.90;;;;;;5049246;28;20448;-71
2022/06/19 04:00:43;;;;;;;15.47;8.23;;;18.20;99.90;;;;;;5048401;28;20452;-70
2022/06/19 04:03:10;;;;;;;15.27;8.27;;;18.20;99.90;;;;;;5049376;28;20488;-71
2022/06/19 04:05:37;;;;;;;12.77;7.30;;;18.30;99.90;;;;;;5052876;28;20824;-71
2022/06/19 04:08:04;;;;;;;12.20;6.87;;;18.30;99.90;;;;;;5053137;28;20455;-71
2022/06/19 04:10:31;;;;;;;13.10;8.10;;;18.40;99.90;;;;;;5052452;28;20495;-71
2022/06/19 04:12:58;;;;;;;10.33;6.77;;;18.50;99.90;;;;;;5052969;28;20463;-71
2022/06/19 04:15:26;;;;;;;14.20;7.87;;;18.60;99.90;;;;;;5052512;28;20447;-70
2022/06/19 04:17:53;;;;;;;14.50;7.20;;;18.70;99.90;;;;;;5052950;28;20452;-71
2022/06/19 04:20:20;;;;;;;11.93;8.10;;;18.70;99.90;;;;;;5052292;28;20459;-71
2022/06/19 04:22:47;;;;;;;14.40;8.47;;;18.80;99.90;;;;;;5052715;28;20479;-71
2022/06/19 04:25:14;;;;;;;13.33;7.53;;;18.90;99.90;;;;;;5052456;28;20458;-71
2022/06/19 04:27:42;;;;;;;17.40;8.30;;;19.00;99.90;;;;;;5052628;28;20946;-70
2022/06/19 04:30:09;;;;;;;12.00;7.53;;;19.10;99.90;;;;;;5052116;28;20447;-71
2022/06/19 04:32:37;;;;;;;17.03;7.33;;;19.20;99.90;;;;;;5052745;28;20464;-71
2022/06/19 04:35:05;;;;;;;12.43;7.43;;;19.30;99.90;;;;;;5052375;28;20452;-70
2022/06/19 04:37:32;;;;;;;8.77;6.77;;;19.40;99.90;;;;;;5052650;28;20466;-71
2022/06/19 04:39:59;;;;;;;12.73;7.30;;;19.50;99.90;;;;;;5052051;28;20442;-70
2022/06/19 04:42:25;;;;;;;8.83;6.70;;;19.60;99.90;;;;;;5051896;28;20479;-71
2022/06/19 04:44:52;;;;;;;10.80;7.00;;;19.70;99.90;;;;;;5052307;28;20448;-71
2022/06/19 04:47:19;;;;;;;10.87;6.60;;;19.80;99.90;;;;;;5052600;28;20447;-71
2022/06/19 04:49:47;;;;;;;9.07;5.93;;;20.00;99.90;;;;;;5052025;28;20452;-71
2022/06/19 04:52:14;;;;;;;9.23;7.30;;;20.10;99.90;;;;;;5052178;28;20474;-70
2022/06/19 04:54:42;;;;;;;7.63;5.70;;;20.20;99.90;;;;;;5051896;28;20444;-70
2022/06/19 04:57:08;;;;;;;12.40;5.83;;;20.30;99.90;;;;;;5052105;28;20439;-71
2022/06/19 04:59:35;;;;;;;10.40;5.87;;;20.40;99.90;;;;;;5052181;28;21145;-71
2022/06/19 05:02:02;;;;;;;10.30;5.87;;;20.50;99.90;;;;;;5051595;28;20448;-70
2022/06/19 05:04:29;;;;;;;9.00;6.40;;;20.60;99.90;;;;;;5051972;28;20466;-71
2022/06/19 05:06:57;;;;;;;9.27;6.10;;;20.70;99.90;;;;;;5051973;28;20444;-71
2022/06/19 05:09:24;;;;;;;8.93;5.80;;;20.70;99.90;;;;;;5051839;28;20467;-71
2022/06/19 05:11:53;;;;;;;10.80;6.13;;;20.80;99.90;;;;;;5051031;28;20464;-71
2022/06/19 05:14:20;;;;;;;11.20;5.90;;;20.90;99.90;;;;;;5051631;28;20447;-71
2022/06/19 05:16:47;;;;;;;11.37;6.10;;;21.00;99.90;;;;;;5051150;28;20452;-71
2022/06/19 05:19:14;;;;;;;7.60;4.70;;;21.20;99.90;;;;;;5051808;28;20934;-69
2022/06/19 05:21:41;;;;;;;10.50;6.93;;;21.40;99.90;;;;;;5051151;28;20471;-71
2022/06/19 05:24:10;;;;;;;7.30;4.63;;;21.50;99.90;;;;;;5051514;28;20479;-70
2022/06/19 05:26:37;;;;;;;11.50;6.73;;;21.50;99.90;;;;;;5051273;28;20969;-71
2022/06/19 05:29:04;;;;;;;9.00;5.80;;;21.60;99.90;;;;;;5051957;28;20447;-71
2022/06/19 05:31:34;;;;;;;11.30;7.17;;;21.70;99.90;;;;;;5051042;28;20483;-71
2022/06/19 05:34:00;;;;;;;11.23;6.30;;;21.90;99.90;;;;;;5051788;28;20490;-71
2022/06/19 05:36:29;;;;;;;9.70;5.73;;;22.00;99.90;;;;;;5051468;28;20447;-71
2022/06/19 05:38:56;;;;;;;10.37;6.03;;;22.20;99.90;;;;;;5051589;28;20458;-71
2022/06/19 05:41:26;;;;;;;13.57;6.27;;;22.30;99.90;;;;;;5050734;28;20472;-71
2022/06/19 05:43:53;;;;;;;11.33;6.10;;;22.40;99.90;;;;;;5051703;28;20483;-70
2022/06/19 05:46:21;;;;;;;7.30;5.00;;;22.60;99.90;;;;;;5051363;28;20444;-71
2022/06/19 05:48:49;;;;;;;13.80;5.77;;;22.70;99.90;;;;;;5051627;28;20452;-68
2022/06/19 05:51:17;;;;;;;11.83;5.97;;;22.90;99.90;;;;;;5050514;28;20454;-71
2022/06/19 05:53:47;;;;;;;13.50;5.03;;;23.00;99.90;;;;;;5051731;28;20505;-71
2022/06/19 05:56:13;;;;;;;13.70;5.10;;;23.20;99.90;;;;;;5051073;28;20474;-71
2022/06/19 05:58:42;;;;;;;14.90;6.33;;;23.30;99.90;;;;;;5051322;28;20448;-71
2022/06/19 06:01:10;;;;;;;11.43;6.07;;;23.50;99.90;;;;;;5050344;28;20501;-72
2022/06/19 06:03:38;;;;;;;24.07;6.60;;;23.60;99.90;;;;;;5050871;28;21051;-69
2022/06/19 06:06:07;;;;;;;11.63;5.17;;;23.70;99.90;;;;;;5050826;28;20452;-71
2022/06/19 06:08:36;;;;;;;11.53;4.97;;;23.90;99.90;;;;;;5051261;28;20871;-71
2022/06/19 06:11:03;;;;;;;11.33;4.80;;;24.10;99.90;;;;;;5051254;28;20531;-72
2022/06/19 06:13:30;;;;;;;10.30;4.80;;;24.30;99.90;;;;;;5051988;28;20440;-71
2022/06/19 06:15:59;;;;;;;10.40;5.23;;;24.40;99.90;;;;;;5050624;28;20458;-71
2022/06/19 06:18:26;;;;;;;9.80;4.80;;;24.50;99.90;;;;;;5050605;28;20452;-71
2022/06/19 06:20:56;;;;;;;13.17;5.40;;;24.60;99.90;;;;;;5050012;28;20439;-72
2022/06/19 06:23:23;;;;;;;14.53;5.73;;;24.70;99.90;;;;;;5050395;28;21009;-72
2022/06/19 06:25:57;;;;;;;11.13;5.43;;;24.80;99.90;;;;;;5050173;28;20834;-71
2022/06/19 06:28:24;;;;;;;10.40;5.00;;;24.90;99.90;;;;;;5050406;28;20447;-70
2022/06/19 06:30:51;;;;;;;13.20;5.57;;;25.00;99.90;;;;;;5049577;28;20455;-72
2022/06/19 06:33:19;;;;;;;14.07;5.50;;;25.10;99.90;;;;;;5050283;28;21049;-71
2022/06/19 06:35:46;;;;;;;14.37;5.97;;;25.20;99.90;;;;;;5050092;28;20451;-71
2022/06/19 06:38:12;;;;;;;11.50;4.63;;;25.30;99.90;;;;;;5050419;28;20452;-72
2022/06/19 06:40:39;;;;;;;19.83;6.17;;;25.40;99.90;;;;;;5049512;28;20455;-72
2022/06/19 06:43:06;;;;;;;9.93;4.90;;;25.50;99.90;;;;;;5050079;28;20510;-72
2022/06/19 06:45:33;;;;;;;13.20;5.53;;;25.50;99.90;;;;;;5049776;28;20456;-72
2022/06/19 06:48:00;;;;;;;13.93;5.27;;;25.60;99.90;;;;;;5050311;28;20448;-72
2022/06/19 06:50:28;;;;;;;8.40;4.90;;;25.80;99.90;;;;;;5049476;28;20459;-71
2022/06/19 06:52:55;;;;;;;10.37;5.40;;;25.90;99.90;;;;;;5050065;28;20574;-71
2022/06/19 06:55:22;;;;;;;9.47;5.47;;;26.10;99.90;;;;;;5049622;28;20905;-71
2022/06/19 06:57:49;;;;;;;11.30;5.20;;;26.20;99.90;;;;;;5049916;28;20772;-72
2022/06/19 07:00:19;;;;;;;17.70;5.80;;;26.40;99.90;;;;;;5049330;28;20454;-71
2022/06/19 07:02:46;;;;;;;10.43;4.93;;;26.60;99.80;;;;;;5049811;28;20478;-72
2022/06/19 07:05:14;;;;;;;16.53;5.60;;;26.70;99.80;;;;;;5049552;28;20447;-71
2022/06/19 07:07:42;;;;;;;10.83;4.93;;;26.90;99.40;;;;;;5049819;28;20462;-71
2022/06/19 07:10:11;;;;;;;12.60;5.33;;;27.10;98.60;;;;;;5049130;28;20708;-71
2022/06/19 07:12:38;;;;;;;13.03;5.67;;;27.50;98.10;;;;;;5049598;28;21088;-72
2022/06/19 07:15:06;;;;;;;11.57;5.40;;;27.90;97.50;;;;;;5049582;28;20447;-71
2022/06/19 07:17:32;;;;;;;12.13;5.67;;;28.30;97.20;;;;;;5049761;28;20453;-71
2022/06/19 07:19:59;;;;;;;14.63;5.47;;;28.60;96.70;;;;;;5048893;28;20976;-72
2022/06/19 07:22:28;;;;;;;11.60;5.33;;;28.70;96.60;;;;;;5049697;28;20824;-72
2022/06/19 07:24:56;;;;;;;10.60;6.00;;;28.80;94.90;;;;;;5049030;28;20491;-72
2022/06/19 07:27:22;;;;;;;13.53;4.97;;;28.80;95.20;;;;;;5049726;28;20451;-71
2022/06/19 07:29:49;;;;;;;11.50;6.07;;;28.60;95.50;;;;;;5048944;28;20444;-71
2022/06/19 07:32:16;;;;;;;11.83;5.60;;;28.40;95.80;;;;;;5049224;28;20464;-71
2022/06/19 07:34:43;;;;;;;11.33;6.00;;;28.30;95.90;;;;;;5049097;28;20452;-72
2022/06/19 07:37:14;;;;;;;10.07;5.40;;;28.20;96.60;;;;;;5049459;28;20467;-72
2022/06/19 07:39:41;;;;;;;12.73;4.93;;;28.30;96.80;;;;;;5051839;28;20502;-72
2022/06/19 07:42:10;;;;;;;8.03;5.20;;;28.40;96.60;;;;;;5052758;28;20464;-72
2022/06/19 07:44:37;;;;;;;17.10;6.83;;;28.50;97.70;;;;;;5053127;28;20578;-73
2022/06/19 07:50:10;;;;;;;12.87;5.30;;;28.30;96.50;;;;;;5016249;28;20432;-71
2022/06/19 07:52:37;;;;;;;9.77;6.00;;;28.50;97.30;;;;;;5053395;28;20860;-71
2022/06/19 07:55:05;;;;;;;10.83;6.03;;;28.50;96.50;;;;;;5052840;28;20567;-71
2022/06/19 07:57:33;;;;;;;13.33;6.40;;;28.70;96.60;;;;;;5053292;28;20454;-71
2022/06/19 08:00:00;;;;;;;12.90;6.23;;;28.80;96.50;;;;;;5052388;28;20448;-68
2022/06/19 08:02:27;;;;;;;11.68;6.10;;;28.90;95.80;;;;;;5052037;28;20427;-72
2022/06/19 08:04:54;;;;;;;10.53;6.40;;;28.90;96.20;;;;;;5052707;28;20711;-71
2022/06/19 08:07:21;;;;;;;15.90;6.07;;;29.00;95.90;;;;;;5052779;28;20451;-71
2022/06/19 08:09:48;;;;;;;12.50;6.00;;;29.00;95.40;;;;;;5052426;28;20447;-71
2022/06/19 08:12:14;;;;;;;14.20;6.10;;;28.90;94.80;;;;;;5052795;28;20477;-71
2022/06/19 08:14:43;;;;;;;10.53;6.30;;;28.90;97.40;;;;;;5052623;28;20448;-72
2022/06/19 08:17:10;;;;;;;12.53;6.40;;;29.10;95.90;;;;;;5052861;28;20824;-71
2022/06/19 08:19:37;;;;;;;16.83;6.20;;;29.20;95.20;;;;;;5052751;28;20451;-70
2022/06/19 08:22:04;;;;;;;12.17;6.83;;;29.30;95.70;;;;;;5052179;28;20883;-71
2022/06/19 08:24:30;;;;;;;13.63;6.10;;;29.50;94.80;;;;;;5052308;28;20493;-69
2022/06/19 08:26:58;;;;;;;17.40;7.93;;;29.60;94.70;;;;;;5052825;28;20530;-72
2022/06/19 08:29:25;;;;;;;12.70;7.30;;;29.80;95.20;;;;;;5052764;28;20517;-71
2022/06/19 08:31:53;;;;;;;14.00;7.50;;;29.90;93.80;;;;;;5051950;28;20844;-71
2022/06/19 08:34:20;;;;;;;9.83;6.90;;;30.20;94.10;;;;;;5052292;28;20462;-72
2022/06/19 08:36:47;;;;;;;14.93;6.43;;;30.30;94.80;;;;;;5052794;28;20444;-71
2022/06/19 08:39:17;;;;;;;11.10;6.50;;;30.50;94.30;;;;;;5052778;28;20487;-71
2022/06/19 08:42:39;;;;;;;12.67;7.27;;;30.70;94.00;;;;;;5052238;28;20463;-71
2022/06/19 08:45:31;;;;;;;13.60;6.70;;;30.90;92.60;;;;;;4970973;28;21201;-72
2022/06/19 08:48:27;;;;;;;13.60;6.70;;;31.00;92.00;;;;;;5047227;28;20468;-72
2022/06/19 08:51:01;;;;;;;10.00;5.90;;;31.30;93.30;;;;;;5050327;28;20444;-72
2022/06/19 08:53:44;;;;;;;12.47;6.93;;;31.40;93.30;;;;;;5052703;28;20466;-71
2022/06/19 08:56:16;;;;;;;15.40;6.90;;;31.60;92.50;;;;;;5052273;28;20440;-72
2022/06/19 08:58:46;;;;;;;13.23;7.10;;;31.60;92.70;;;;;;5052385;28;20444;-72
2022/06/19 09:01:24;;;;;;;14.07;7.63;;;31.50;90.90;;;;;;5051522;28;20543;-72
2022/06/19 09:06:56;;;;;;;9.30;6.93;;;31.70;91.40;;;;;;5052489;28;20543;-72
2022/06/19 09:09:53;;;;;;;18.63;7.90;;;31.90;91.70;;;;;;5052276;28;20463;-71
2022/06/19 09:12:36;;;;;;;13.77;7.33;;;32.20;91.50;;;;;;5052276;28;20468;-71
2022/06/19 09:15:11;;;;;;;9.90;7.10;;;32.50;90.00;;;;;;5052040;28;20440;-70
2022/06/19 09:17:50;;;;;;;12.27;7.57;;;32.50;88.40;;;;;;5052129;28;20448;-67
2022/06/19 09:20:29;;;;;;;9.30;7.20;;;32.80;85.00;;;;;;5051367;28;20443;-71
2022/06/19 09:23:27;;;;;;;11.80;7.27;;;33.00;82.10;;;;;;5052217;28;20969;-70
2022/06/19 09:25:58;;;;;;;14.80;7.87;;;33.20;86.80;;;;;;5051376;28;20444;-71
2022/06/19 09:28:31;;;;;;;12.43;6.90;;;33.40;81.10;;;;;;5051663;28;20443;-71
2022/06/19 09:31:05;;;;;;;11.50;6.87;;;33.50;71.00;;;;;;5050835;28;20443;-72
2022/06/19 09:33:41;;;;;;;13.80;7.10;;;33.40;71.00;;;;;;5051556;28;21021;-73
2022/06/19 09:36:17;;;;;;;12.00;6.80;;;33.20;67.10;;;;;;5051030;28;20443;-72
2022/06/19 09:38:49;;;;;;;10.50;6.70;;;33.20;59.40;;;;;;5051492;28;20443;-72
2022/06/19 09:41:32;;;;;;;11.77;6.63;;;33.40;57.60;;;;;;5050781;28;20436;-72
2022/06/19 09:44:07;;;;;;;9.13;5.67;;;33.50;56.20;;;;;;5051367;28;20480;-71
2022/06/19 09:46:40;;;;;;;11.80;6.60;;;33.50;55.10;;;;;;5050999;28;20505;-72
2022/06/19 09:49:13;;;;;;;11.10;6.80;;;33.70;54.60;;;;;;5051437;28;20451;-72
2022/06/19 09:51:50;;;;;;;7.70;6.60;;;33.80;54.90;;;;;;5050478;28;20479;-72
2022/06/19 09:54:21;;;;;;;8.50;5.87;;;33.90;53.70;;;;;;5050882;28;20454;-68
2022/06/19 09:56:54;;;;;;;11.53;4.93;;;34.10;54.00;;;;;;5051223;28;20452;-71
2022/06/19 09:59:26;;;;;;;10.73;5.97;;;34.40;54.60;;;;;;5051055;28;20462;-71
2022/06/19 10:01:58;;;;;;;11.47;6.20;;;34.70;52.00;;;;;;5049824;28;20547;-71
2022/06/19 10:04:35;;;;;;;13.90;6.77;;;35.20;52.30;;;;;;5050601;28;20838;-70
2022/06/19 10:07:09;;;;;;;7.73;5.87;;;35.60;50.00;;;;;;5050856;28;20578;-71
2022/06/19 10:09:43;;;;;;;9.80;6.73;;;35.90;49.70;;;;;;5050722;28;20441;-70
2022/06/19 10:12:17;;;;;;;9.20;5.63;;;36.10;48.40;;;;;;5050425;28;20460;-70
2022/06/19 10:14:48;;;;;;;12.03;6.10;;;36.10;48.40;;;;;;5050305;28;20446;-70
2022/06/19 10:17:21;;;;;;;12.83;6.30;;;36.00;48.90;;;;;;5050769;28;20444;-70
2022/06/19 10:19:52;;;;;;;10.30;6.37;;;36.10;48.00;;;;;;5049889;28;20440;-71
2022/06/19 10:22:37;;;;;;;8.80;7.00;;;36.30;47.80;;;;;;5050901;28;20506;-69
2022/06/19 10:25:23;;;;;;;10.17;7.30;;;36.30;47.70;;;;;;5050399;28;20480;-71
2022/06/19 10:28:00;;;;;;;12.60;6.70;;;36.20;47.30;;;;;;5050469;28;20451;-71
2022/06/19 10:30:35;;;;;;;8.57;5.93;;;36.20;47.10;;;;;;5049455;28;20466;-71
2022/06/19 10:33:16;;;;;;;9.60;6.47;;;36.30;47.00;;;;;;5050530;28;20479;-70
2022/06/19 10:35:49;;;;;;;9.43;6.37;;;36.70;47.20;;;;;;5050132;28;20439;-69
2022/06/19 10:38:39;;;;;;;11.87;6.77;;;37.10;46.20;;;;;;5050459;28;20456;-71
2022/06/19 10:42:00;;;;;;;14.20;6.80;;;37.20;45.10;;;;;;5049687;28;20825;-71
2022/06/19 10:44:13;;;;;;;13.03;5.70;;;37.10;45.00;;;;;;5049903;28;20476;-71
2022/06/19 10:46:41;;;;;;;10.47;6.30;;;37.40;44.90;;;;;;5050013;28;20558;-71
2022/06/19 10:49:19;;;;;;;10.23;6.30;;;37.50;45.10;;;;;;5049913;28;20945;-71
2022/06/19 10:52:06;;;;;;;13.03;6.00;;;37.90;44.60;;;;;;5049421;28;20472;-71
2022/06/19 10:55:00;;;;;;;10.13;6.23;;;38.30;43.30;;;;;;5049703;28;20557;-70
2022/06/19 10:57:36;;;;;;;13.20;7.63;;;38.20;43.60;;;;;;5049567;28;20964;-71
2022/06/19 11:00:06;;;;;;;11.53;6.03;;;37.70;41.80;;;;;;5049438;28;20440;-70
2022/06/19 11:05:37;;;;;;;11.67;6.50;;;37.90;43.00;;;;;;5049613;28;20479;-70
2022/06/19 11:08:04;;;;;;;10.60;7.10;;;37.70;42.20;;;;;;5049871;28;20509;-71
2022/06/19 11:10:38;;;;;;;11.57;6.60;;;37.70;43.60;;;;;;5049159;28;20960;-70
2022/06/19 11:13:05;;;;;;;12.70;6.73;;;37.70;42.00;;;;;;5049725;28;20812;-70
2022/06/19 11:15:35;;;;;;;12.87;6.60;;;37.70;42.40;;;;;;5052292;28;20444;-71
2022/06/19 11:18:14;;;;;;;12.20;7.20;;;37.60;42.10;;;;;;5050228;28;20454;-70
2022/06/19 11:20:44;;;;;;;11.13;6.80;;;37.60;42.40;;;;;;5049202;28;20606;-71
2022/06/19 11:23:22;;;;;;;10.67;6.63;;;37.70;42.80;;;;;;5049778;28;20495;-70
2022/06/19 11:26:00;;;;;;;17.13;7.27;;;37.90;42.30;;;;;;5049242;28;20491;-71
2022/06/19 11:28:48;;;;;;;13.07;7.10;;;37.80;42.20;;;;;;5049682;28;20452;-71
2022/06/19 11:31:19;;;;;;;10.63;6.60;;;38.30;43.00;;;;;;5048774;28;20542;-71
2022/06/19 11:33:47;;;;;;;11.30;6.90;;;38.70;40.80;;;;;;5049528;28;20458;-71
2022/06/19 11:36:36;;;;;;;11.33;6.60;;;38.50;39.70;;;;;;5049337;28;20440;-70
2022/06/19 11:39:32;;;;;;;9.80;6.63;;;37.90;40.40;;;;;;5049722;28;20454;-71
2022/06/19 11:41:58;;;;;;;12.20;5.70;;;38.00;41.50;;;;;;5048786;28;20474;-71
2022/06/19 11:44:25;;;;;;;9.30;6.60;;;38.10;40.60;;;;;;5049005;28;21199;-72
2022/06/19 11:46:55;;;;;;;13.03;7.03;;;38.10;40.30;;;;;;5049469;28;20444;-71
2022/06/19 11:49:30;;;;;;;11.90;6.53;;;38.40;40.30;;;;;;5049407;28;20455;-71
2022/06/19 11:52:00;;;;;;;14.10;6.57;;;38.70;41.20;;;;;;5048749;28;20831;-71
2022/06/19 11:54:32;;;;;;;11.00;6.77;;;39.00;39.60;;;;;;5049373;28;20443;-71
2022/06/19 11:56:59;;;;;;;12.47;6.60;;;38.80;39.70;;;;;;5049418;28;20483;-71
2022/06/19 11:59:35;;;;;;;12.43;6.87;;;38.30;39.30;;;;;;5049497;28;20458;-71
2022/06/19 12:02:20;;;;;;;10.43;6.50;;;38.30;39.40;;;;;;5048627;28;20985;-71
2022/06/19 12:04:53;;;;;;;8.90;5.70;;;38.30;39.70;;;;;;5048935;28;20475;-71
2022/06/19 12:07:23;;;;;;;10.30;6.20;;;38.20;39.30;;;;;;5049342;28;20455;-72
2022/06/19 12:09:57;;;;;;;20.97;7.00;;;38.00;39.10;;;;;;5049171;28;20530;-70
2022/06/19 12:12:25;;;;;;;12.20;7.03;;;37.90;39.70;;;;;;5049424;28;20460;-71
2022/06/19 12:14:58;;;;;;;12.43;7.13;;;38.20;39.20;;;;;;5049439;28;20451;-72
2022/06/19 12:17:36;;;;;;;11.43;7.33;;;38.40;39.00;;;;;;5049905;28;20447;-71
2022/06/19 12:20:19;;;;;;;10.67;6.33;;;38.30;38.90;;;;;;5048811;28;20509;-72
2022/06/19 12:22:50;;;;;;;12.20;6.47;;;38.70;40.20;;;;;;5049414;28;20455;-69
2022/06/19 12:25:31;;;;;;;9.20;7.20;;;38.90;42.00;;;;;;5051039;28;20889;-73
2022/06/19 12:28:05;;;;;;;11.07;7.40;;;39.30;43.90;;;;;;5053420;28;20534;-71
2022/06/19 12:30:37;;;;;;;8.73;6.80;;;39.70;43.10;;;;;;5052288;28;20448;-70
2022/06/19 12:33:13;;;;;;;12.17;7.07;;;39.80;42.30;;;;;;5052831;28;20503;-71
2022/06/19 12:35:44;;;;;;;9.63;6.10;;;39.70;43.50;;;;;;5052778;28;20448;-72
2022/06/19 12:38:13;;;;;;;10.00;6.67;;;39.70;42.80;;;;;;5052699;28;20450;-72
2022/06/19 12:40:52;;;;;;;7.50;6.67;;;39.80;39.20;;;;;;5051896;28;20450;-72
2022/06/19 12:43:27;;;;;;;11.83;7.00;;;40.30;42.30;;;;;;5052588;28;20464;-72
2022/06/19 12:45:56;;;;;;;7.17;6.30;;;40.70;41.20;;;;;;5051958;28;20489;-72
2022/06/19 12:48:39;;;;;;;12.30;6.87;;;41.00;40.50;;;;;;5052683;28;20501;-72
2022/06/19 12:51:09;;;;;;;12.93;6.77;;;40.80;41.40;;;;;;5051569;28;20960;-71
2022/06/19 12:54:03;;;;;;;8.53;6.60;;;40.60;41.80;;;;;;5052487;28;20444;-71
2022/06/19 12:56:47;;;;;;;12.10;6.63;;;40.80;42.40;;;;;;5051983;28;20444;-71
2022/06/19 12:59:47;;;;;;;10.30;7.33;;;41.70;43.70;;;;;;5052273;28;20452;-72
2022/06/19 13:02:18;;;;;;;13.13;6.50;;;42.00;37.30;;;;;;5051966;28;20558;-71
2022/06/19 13:04:57;;;;;;;8.20;5.57;;;42.20;36.20;;;;;;5051623;28;21012;-71
2022/06/19 13:07:36;;;;;;;11.93;6.90;;;41.60;35.70;;;;;;5052257;28;20450;-72